Terminal Aerodrome Forecast
Issued by NWS Grand Junction, CO

Home | Current Version | Previous Version | Text Only | Print | Product List | Glossary On
Versions: 1 2 3 4 5 6 7 8 9 10 11 12 13 14 15 16 17 18 19 20 21 22 23 24 25 26 27 28 29 30 31 32 33 34
000
FTUS45 KGJT 041739
TAFGJT
TAF
KGJT 041739Z 0418/0518 13008G15KT P6SM SCT120 SCT160
     FM041900 28010KT P6SM SCT100 BKN150
     FM042100 28010KT P6SM VCSH SCT090 BKN150
     FM050200 14012G20KT P6SM BKN150
     FM050600 11010KT P6SM SCT150
     FM051000 12009KT P6SM BKN120=

USA.gov is the U.S. government's official web portal to all federal, state and local government web resources and services.